createdAt,value
2023-05-10T05:02:02.633Z,99.99
2023-05-10T05:03:02.641Z,99.99
2023-05-10T05:04:02.546Z,99.99
2023-05-10T05:05:02.475Z,99.99
2023-05-10T05:06:02.432Z,99.99
2023-05-10T05:07:02.435Z,99.99
2023-05-10T05:08:02.419Z,99.99
2023-05-10T05:09:02.423Z,99.99
2023-05-10T05:10:02.401Z,99.99
2023-05-10T05:11:02.389Z,99.99
2023-05-10T05:12:02.378Z,99.99
2023-05-10T05:13:07.416Z,99.99
2023-05-10T05:14:02.341Z,99.99
2023-05-10T05:15:02.355Z,99.99
2023-05-10T05:16:02.388Z,99.99
2023-05-10T05:17:02.329Z,99.99
2023-05-10T05:18:02.389Z,99.99
2023-05-10T05:19:02.292Z,99.99
2023-05-10T05:20:02.289Z,99.99
2023-05-10T05:21:02.265Z,99.99
2023-05-10T05:22:02.265Z,99.99
2023-05-10T05:23:02.279Z,99.99
2023-05-10T05:24:07.264Z,99.99
2023-05-10T05:25:02.230Z,99.99
2023-05-10T05:26:02.209Z,99.99
2023-05-10T05:27:02.193Z,99.99
2023-05-10T05:28:02.182Z,99.99
2023-05-10T05:29:02.309Z,99.99
2023-05-10T05:30:02.167Z,99.99
2023-05-10T05:31:02.170Z,99.99
2023-05-10T05:32:02.251Z,99.99
2023-05-10T05:33:02.171Z,99.99
2023-05-10T05:34:02.163Z,99.99
2023-05-10T05:35:07.150Z,99.99
2023-05-10T05:36:02.091Z,99.99
2023-05-10T05:37:02.090Z,99.99
2023-05-10T05:38:02.121Z,99.99
2023-05-10T05:39:02.074Z,99.99
2023-05-10T05:40:02.055Z,99.99
2023-05-10T05:41:02.050Z,99.99
2023-05-10T05:42:02.057Z,99.99
2023-05-10T05:43:02.025Z,99.99
2023-05-10T05:44:02.003Z,99.99
2023-05-10T05:45:02.008Z,99.99
2023-05-10T05:46:07.113Z,99.99
2023-05-10T05:47:01.993Z,99.99
2023-05-10T05:48:02.029Z,99.99
2023-05-10T05:49:01.948Z,99.99
2023-05-10T05:50:01.969Z,99.99
2023-05-10T05:51:01.926Z,99.99
2023-05-10T05:52:01.922Z,99.99
2023-05-10T05:53:01.933Z,99.99
2023-05-10T05:54:01.888Z,99.99
2023-05-10T05:55:01.879Z,99.99
2023-05-10T05:56:01.861Z,99.99
2023-05-10T05:57:06.896Z,99.99
2023-05-10T05:58:01.842Z,99.99
2023-05-10T05:59:01.852Z,99.99
2023-05-10T06:00:01.866Z,99.99
2023-05-10T06:01:01.840Z,99.99
2023-05-10T06:02:01.844Z,99.99
2023-05-10T06:03:01.939Z,99.99
2023-05-10T06:04:01.818Z,99.99
2023-05-10T06:05:01.777Z,99.99
2023-05-10T06:06:01.769Z,99.99
2023-05-10T06:07:01.762Z,99.99
2023-05-10T06:08:06.750Z,99.99
2023-05-10T06:09:01.724Z,99.99
2023-05-10T06:10:01.708Z,99.99
2023-05-10T06:11:01.717Z,99.99
2023-05-10T06:12:01.696Z,99.99
2023-05-10T06:13:01.686Z,99.99
2023-05-10T06:14:01.661Z,99.99
2023-05-10T06:15:01.651Z,99.99
2023-05-10T06:16:01.650Z,99.99
2023-05-10T06:17:01.852Z,99.99
2023-05-10T06:18:01.651Z,99.99
2023-05-10T06:19:06.636Z,99.99
2023-05-10T06:20:01.607Z,99.99
2023-05-10T06:21:01.598Z,99.48
2023-05-10T06:22:01.596Z,99.32
2023-05-10T06:23:01.601Z,99.78
2023-05-10T06:24:01.590Z,99.38
2023-05-10T06:25:01.548Z,99.58
2023-05-10T06:26:01.541Z,99.17
2023-05-10T06:27:01.530Z,99.78
2023-05-10T06:28:01.502Z,99.38
2023-05-10T06:29:01.519Z,99.17
2023-05-10T06:30:12.875Z,98.92
2023-05-10T06:31:01.508Z,99.22
2023-05-10T06:32:01.461Z,98.97
2023-05-10T06:33:01.495Z,98.82
2023-05-10T06:34:01.442Z,97.71
2023-05-10T06:35:01.486Z,98.72
2023-05-10T06:36:01.485Z,98.32
2023-05-10T06:37:01.402Z,98.21
2023-05-10T06:38:01.421Z,97.80
2023-05-10T06:39:01.381Z,97.30
2023-05-10T06:40:01.381Z,97.80
2023-05-10T06:41:06.404Z,97.80
2023-05-10T06:42:01.345Z,97.71
2023-05-10T06:43:01.341Z,97.80
2023-05-10T06:44:01.331Z,98.01
2023-05-10T06:45:01.327Z,97.71
2023-05-10T06:46:01.327Z,97.71
2023-05-10T06:47:01.337Z,97.40
2023-05-10T06:48:01.338Z,97.86
2023-05-10T06:49:01.297Z,97.25
2023-05-10T06:50:01.254Z,97.66
2023-05-10T06:51:01.249Z,97.76
2023-05-10T06:52:06.262Z,97.35
2023-05-10T06:53:01.245Z,97.96
2023-05-10T06:54:01.288Z,97.35
2023-05-10T06:55:01.205Z,97.05
2023-05-10T06:56:01.187Z,97.76
2023-05-10T06:57:02.546Z,97.92
2023-05-10T06:58:01.166Z,97.35
2023-05-10T06:59:01.214Z,97.45
2023-05-10T07:00:01.229Z,97.25
2023-05-10T07:01:01.146Z,97.35
2023-05-10T07:02:01.144Z,97.15
2023-05-10T07:03:06.225Z,97.76
2023-05-10T07:04:01.122Z,96.80
2023-05-10T07:05:14.797Z,97.35
2023-05-10T07:06:01.097Z,96.75
2023-05-10T07:07:01.166Z,96.60
2023-05-10T07:08:01.081Z,96.30
2023-05-10T07:09:01.063Z,96.39
2023-05-10T07:10:01.134Z,96.60
2023-05-10T07:11:01.115Z,96.45
2023-05-10T07:12:01.036Z,96.70
2023-05-10T07:13:01.094Z,95.84
2023-05-10T07:14:06.035Z,96.15
2023-05-10T07:15:00.968Z,95.43
2023-05-10T07:16:01.089Z,95.23
2023-05-10T07:17:00.975Z,95.43
2023-05-10T07:18:01.083Z,95.23
2023-05-10T07:19:00.935Z,95.70
2023-05-10T07:20:00.923Z,95.50
2023-05-10T07:21:01.011Z,95.03
2023-05-10T07:22:01.013Z,94.78
2023-05-10T07:23:00.958Z,94.07
2023-05-10T07:24:00.865Z,93.97
2023-05-10T07:25:05.922Z,94.27
2023-05-10T07:26:00.918Z,94.27
2023-05-10T07:27:00.849Z,94.78
2023-05-10T07:28:00.815Z,94.27
2023-05-10T07:29:00.804Z,94.23
2023-05-10T07:30:00.889Z,93.22
2023-05-10T07:31:00.805Z,92.21
2023-05-10T07:32:00.893Z,92.16
2023-05-10T07:33:00.785Z,92.16
2023-05-10T07:34:00.755Z,91.35
2023-05-10T07:35:00.755Z,91.25
2023-05-10T07:36:05.760Z,91.05
2023-05-10T07:37:00.728Z,90.03
2023-05-10T07:38:00.703Z,89.73
2023-05-10T07:39:00.695Z,89.63
2023-05-10T07:40:00.678Z,90.34
2023-05-10T07:41:00.701Z,89.73
2023-05-10T07:42:00.665Z,89.94
2023-05-10T07:43:00.670Z,89.94
2023-05-10T07:44:00.631Z,90.24
2023-05-10T07:45:00.627Z,90.03
2023-05-10T07:46:00.731Z,90.95
2023-05-10T07:47:05.693Z,90.60
2023-05-10T07:48:00.639Z,91.00
2023-05-10T07:49:00.574Z,90.50
2023-05-10T07:50:00.563Z,90.80
2023-05-10T07:51:00.570Z,90.60
2023-05-10T07:52:00.541Z,90.60
2023-05-10T07:53:00.540Z,90.20
2023-05-10T07:54:00.526Z,89.39
2023-05-10T07:55:00.518Z,89.79
2023-05-10T07:56:00.507Z,88.78
2023-05-10T07:57:00.505Z,88.37
2023-05-10T07:58:05.506Z,88.78
2023-05-10T07:59:00.466Z,88.48
2023-05-10T08:00:00.470Z,89.28
2023-05-10T08:01:00.441Z,88.27
2023-05-10T08:02:00.505Z,88.78
2023-05-10T08:03:00.615Z,88.78
2023-05-10T08:04:00.435Z,88.68
2023-05-10T08:05:00.409Z,88.48
2023-05-10T08:06:00.389Z,89.28
2023-05-10T08:07:00.370Z,89.59
2023-05-10T08:08:00.355Z,89.89
2023-05-10T08:09:05.381Z,89.69
2023-05-10T08:10:00.357Z,89.08
2023-05-10T08:11:00.326Z,88.17
2023-05-10T08:12:00.338Z,88.57
2023-05-10T08:13:00.323Z,88.88
2023-05-10T08:14:00.319Z,88.57
2023-05-10T08:15:00.286Z,89.18
2023-05-10T08:16:00.319Z,88.68
2023-05-10T08:17:00.255Z,88.27
2023-05-10T08:18:00.313Z,87.56
2023-05-10T08:19:00.323Z,88.68
2023-05-10T08:20:05.255Z,88.48
2023-05-10T08:21:00.214Z,88.57
2023-05-10T08:22:00.229Z,88.37
2023-05-10T08:23:00.214Z,88.57
2023-05-10T08:24:00.184Z,88.33
2023-05-10T08:25:00.185Z,88.57
2023-05-10T08:26:00.155Z,88.07
2023-05-10T08:27:00.166Z,88.53
2023-05-10T08:28:00.201Z,88.33
2023-05-10T08:29:00.147Z,88.13
2023-05-10T08:30:00.184Z,87.93
2023-05-10T08:31:05.146Z,87.52
2023-05-10T08:32:00.100Z,87.62
2023-05-10T08:33:00.150Z,87.52
2023-05-10T08:34:00.063Z,87.02
2023-05-10T08:35:00.052Z,86.31
2023-05-10T08:36:00.063Z,86.57
2023-05-10T08:37:00.049Z,86.91
2023-05-10T08:38:00.035Z,86.61
2023-05-10T08:39:00.007Z,86.31
2023-05-10T08:40:00.059Z,86.61
2023-05-10T08:41:00.202Z,85.64
2023-05-10T08:42:05.017Z,84.83
2023-05-10T08:42:59.970Z,84.73
2023-05-10T08:43:59.948Z,84.83
2023-05-10T08:44:59.967Z,85.13
2023-05-10T08:45:59.929Z,85.13
2023-05-10T08:46:59.956Z,84.63
2023-05-10T08:48:00.017Z,84.02
2023-05-10T08:48:59.893Z,82.70
2023-05-10T08:49:59.881Z,83.11
2023-05-10T08:50:59.889Z,82.90
2023-05-10T08:51:59.874Z,83.72
2023-05-10T08:53:04.873Z,83.41
2023-05-10T08:53:59.850Z,82.60
2023-05-10T08:54:59.825Z,82.90
2023-05-10T08:55:59.822Z,82.90
2023-05-10T08:56:59.806Z,83.61
2023-05-10T08:57:59.789Z,83.72
2023-05-10T08:58:59.782Z,83.41
2023-05-10T08:59:59.776Z,82.50
2023-05-10T09:00:59.817Z,83.31
2023-05-10T09:01:59.782Z,83.61
2023-05-10T09:02:59.771Z,83.72
2023-05-10T09:04:04.814Z,82.81
2023-05-10T09:04:59.946Z,82.64
2023-05-10T09:05:59.733Z,82.95
2023-05-10T09:06:59.733Z,83.86
2023-05-10T09:07:59.683Z,83.76
2023-05-10T09:08:59.669Z,83.76
2023-05-10T09:09:59.685Z,83.86
2023-05-10T09:10:59.643Z,84.06
2023-05-10T09:11:59.652Z,84.06
2023-05-10T09:12:59.750Z,84.47
2023-05-10T09:13:59.613Z,84.70
2023-05-10T09:15:04.635Z,85.68
2023-05-10T09:16:06.992Z,85.78
2023-05-10T09:16:59.646Z,86.73
2023-05-10T09:17:59.593Z,87.04
2023-05-10T09:18:59.600Z,86.63
2023-05-10T09:19:59.561Z,86.73
2023-05-10T09:20:59.534Z,87.20
2023-05-10T09:21:59.521Z,88.35
2023-05-10T09:22:59.506Z,88.15
2023-05-10T09:23:59.514Z,87.24
2023-05-10T09:24:59.488Z,86.63
2023-05-10T09:26:04.500Z,87.00
2023-05-10T09:26:59.464Z,87.30
2023-05-10T09:27:59.453Z,86.69
2023-05-10T09:28:59.447Z,86.08
2023-05-10T09:29:59.439Z,86.49
2023-05-10T09:30:59.466Z,86.45
2023-05-10T09:31:59.408Z,86.35
2023-05-10T09:32:59.502Z,85.94
2023-05-10T09:33:59.397Z,85.60
2023-05-10T09:34:59.371Z,85.10
2023-05-10T09:35:59.369Z,84.89
2023-05-10T09:37:04.378Z,84.19
2023-05-10T09:37:59.355Z,83.84
2023-05-10T09:38:59.342Z,84.48
2023-05-10T09:39:59.317Z,84.25
2023-05-10T09:40:59.302Z,84.75
2023-05-10T09:41:59.331Z,83.84
2023-05-10T09:42:59.289Z,83.74
2023-05-10T09:43:59.268Z,82.87
2023-05-10T09:44:59.261Z,82.56
2023-05-10T09:45:59.285Z,82.87
2023-05-10T09:46:59.242Z,82.67
2023-05-10T09:48:04.482Z,82.97
2023-05-10T09:48:59.225Z,81.39
2023-05-10T09:49:59.202Z,81.59
2023-05-10T09:50:59.201Z,80.98
2023-05-10T09:51:59.181Z,82.60
2023-05-10T09:52:59.184Z,80.47
2023-05-10T09:53:59.172Z,80.98
2023-05-10T09:54:59.147Z,81.49
2023-05-10T09:55:59.141Z,80.88
2023-05-10T09:56:59.121Z,81.69
2023-05-10T09:57:59.122Z,82.60
2023-05-10T09:59:04.153Z,80.88
2023-05-10T09:59:59.093Z,81.09
2023-05-10T10:00:59.090Z,81.99
2023-05-10T10:01:59.429Z,81.85
2023-05-10T10:02:59.126Z,81.69
2023-05-10T10:03:59.070Z,81.39
2023-05-10T10:04:59.138Z,79.87
2023-05-10T10:05:59.032Z,79.13
2023-05-10T10:06:59.105Z,79.06
2023-05-10T10:07:59.012Z,79.26
2023-05-10T10:08:58.992Z,78.62
2023-05-10T10:10:04.007Z,77.81
2023-05-10T10:10:58.968Z,77.40
2023-05-10T10:11:58.967Z,77.40
2023-05-10T10:12:58.945Z,77.40
2023-05-10T10:13:58.942Z,77.00
2023-05-10T10:14:58.920Z,78.01
2023-05-10T10:15:58.925Z,78.62
2023-05-10T10:17:08.414Z,79.49
2023-05-10T10:17:59.943Z,78.68
2023-05-10T10:18:58.918Z,77.17
2023-05-10T10:19:58.882Z,76.76
2023-05-10T10:21:03.888Z,77.17
2023-05-10T10:21:58.840Z,76.86
2023-05-10T10:22:58.830Z,76.15
2023-05-10T10:23:58.820Z,76.66
2023-05-10T10:24:58.811Z,75.48
2023-05-10T10:25:58.808Z,74.87
2023-05-10T10:26:58.813Z,75.62
2023-05-10T10:27:58.774Z,76.03
2023-05-10T10:28:58.760Z,76.23
2023-05-10T10:29:58.794Z,76.39
2023-05-10T10:30:58.788Z,74.60
2023-05-10T10:32:03.751Z,74.07
2023-05-10T10:32:58.767Z,74.57
2023-05-10T10:33:58.705Z,74.37
2023-05-10T10:34:58.706Z,74.67
2023-05-10T10:35:58.702Z,74.03
2023-05-10T10:36:58.690Z,74.43
2023-05-10T10:37:58.665Z,73.63
2023-05-10T10:38:58.661Z,72.68
2023-05-10T10:39:58.655Z,71.80
2023-05-10T10:40:58.624Z,71.47
2023-05-10T10:41:58.633Z,72.17
2023-05-10T10:43:03.642Z,71.47
2023-05-10T10:43:58.609Z,69.85
2023-05-10T10:44:58.607Z,70.46
2023-05-10T10:45:58.570Z,71.64
2023-05-10T10:46:58.582Z,70.02
2023-05-10T10:47:58.579Z,71.73
2023-05-10T10:48:58.605Z,70.53
2023-05-10T10:49:58.533Z,70.09
2023-05-10T10:50:58.527Z,70.49
2023-05-10T10:51:58.523Z,69.89
2023-05-10T10:52:58.548Z,69.65
2023-05-10T10:54:03.508Z,69.55
2023-05-10T10:54:58.468Z,69.62
2023-05-10T10:55:58.455Z,69.21
2023-05-10T10:56:58.443Z,68.10
2023-05-10T10:57:58.444Z,67.36
2023-05-10T10:58:58.432Z,67.47
2023-05-10T10:59:58.406Z,66.96
2023-05-10T11:00:58.411Z,66.83
2023-05-10T11:01:58.386Z,66.80
2023-05-10T11:02:58.401Z,66.19
2023-05-10T11:03:58.423Z,67.30
2023-05-10T11:05:03.371Z,64.78
2023-05-10T11:05:58.339Z,65.79
2023-05-10T11:06:58.331Z,64.65
2023-05-10T11:07:58.350Z,64.78
2023-05-10T11:08:58.306Z,66.33
2023-05-10T11:09:58.296Z,65.96
2023-05-10T11:10:58.281Z,64.25
2023-05-10T11:11:58.273Z,65.26
2023-05-10T11:12:58.277Z,64.95
2023-05-10T11:13:58.251Z,64.22
2023-05-10T11:14:58.242Z,64.52
2023-05-10T11:16:03.245Z,64.32
2023-05-10T11:16:58.282Z,63.51
2023-05-10T11:17:58.235Z,64.12
2023-05-10T11:18:58.219Z,63.45
2023-05-10T11:19:58.176Z,63.98
2023-05-10T11:20:58.168Z,64.89
2023-05-10T11:21:58.166Z,65.56
2023-05-10T11:22:58.170Z,64.32
2023-05-10T11:23:58.160Z,63.28
2023-05-10T11:24:58.137Z,60.77
2023-05-10T11:25:58.127Z,60.27
2023-05-10T11:27:03.141Z,59.36
2023-05-10T11:27:58.089Z,59.43
2023-05-10T11:28:58.076Z,59.16
2023-05-10T11:29:58.068Z,60.13
2023-05-10T11:30:58.098Z,59.83
2023-05-10T11:31:58.066Z,59.43
2023-05-10T11:32:58.045Z,58.53
2023-05-10T11:33:58.023Z,57.35
2023-05-10T11:34:58.010Z,57.04
2023-05-10T11:35:58.008Z,57.04
2023-05-10T11:36:57.998Z,56.92
2023-05-10T11:38:03.005Z,58.05
2023-05-10T11:38:57.966Z,57.55
2023-05-10T11:39:57.974Z,59.16
2023-05-10T11:40:57.953Z,58.75
2023-05-10T11:41:57.933Z,58.15
2023-05-10T11:42:57.921Z,57.75
2023-05-10T11:43:57.915Z,58.55
2023-05-10T11:44:57.896Z,58.35
2023-05-10T11:45:57.912Z,59.19
2023-05-10T11:46:57.882Z,58.58
2023-05-10T11:47:57.886Z,59.39
2023-05-10T11:49:03.050Z,60.06
2023-05-10T11:49:57.853Z,60.27
2023-05-10T11:50:57.845Z,59.03
2023-05-10T11:51:57.835Z,58.35
2023-05-10T11:52:57.811Z,59.06
2023-05-10T11:53:57.832Z,58.78
2023-05-10T11:54:57.799Z,60.12
2023-05-10T11:55:57.809Z,60.75
2023-05-10T11:56:57.762Z,61.46
2023-05-10T11:57:57.765Z,60.65
2023-05-10T11:58:57.759Z,62.04
2023-05-10T12:00:02.763Z,61.03
2023-05-10T12:00:57.739Z,61.73
2023-05-10T12:01:57.716Z,61.30
2023-05-10T12:02:57.748Z,60.60
2023-05-10T12:03:57.948Z,61.90
2023-05-10T12:04:57.733Z,61.60
2023-05-10T12:05:57.662Z,61.33
2023-05-10T12:06:57.646Z,61.93
2023-05-10T12:07:57.646Z,61.33
2023-05-10T12:08:57.633Z,61.63
2023-05-10T12:09:57.623Z,61.30
2023-05-10T12:11:02.664Z,61.23
2023-05-10T12:11:57.594Z,61.50
2023-05-10T12:12:57.576Z,61.40
2023-05-10T12:13:57.824Z,62.01
2023-05-10T12:14:57.558Z,61.20
2023-05-10T12:15:57.644Z,62.61
2023-05-10T12:16:57.532Z,61.37
2023-05-10T12:17:57.574Z,61.67
2023-05-10T12:18:57.664Z,61.40
2023-05-10T12:19:57.506Z,61.37
2023-05-10T12:20:57.499Z,62.68
2023-05-10T12:22:02.499Z,62.05
2023-05-10T12:22:59.659Z,62.35
2023-05-10T12:23:57.468Z,61.44
2023-05-10T12:24:57.444Z,62.22
2023-05-10T12:25:57.432Z,61.01
2023-05-10T12:26:57.440Z,60.33
2023-05-10T12:27:57.422Z,61.94
2023-05-10T12:28:57.415Z,60.94
2023-05-10T12:29:57.388Z,59.53
2023-05-10T12:30:57.375Z,59.06
2023-05-10T12:31:57.407Z,59.43
2023-05-10T12:33:02.426Z,58.42
2023-05-10T12:33:57.347Z,58.93
2023-05-10T12:34:57.331Z,59.74
2023-05-10T12:35:57.320Z,57.12
2023-05-10T12:36:57.326Z,57.32
2023-05-10T12:37:57.309Z,57.32
2023-05-10T12:38:57.293Z,59.36
2023-05-10T12:39:57.283Z,58.75
2023-05-10T12:40:57.317Z,60.27
2023-05-10T12:41:57.257Z,59.36
2023-05-10T12:42:57.304Z,59.28
2023-05-10T12:44:02.261Z,59.08
2023-05-10T12:44:57.230Z,59.89
2023-05-10T12:45:57.234Z,60.39
2023-05-10T12:46:57.205Z,60.69
2023-05-10T12:47:57.250Z,61.33
2023-05-10T12:49:07.673Z,61.80
2023-05-10T12:49:58.167Z,61.30
2023-05-10T12:50:57.163Z,60.87
2023-05-10T12:51:57.148Z,60.69
2023-05-10T12:52:57.153Z,61.40
2023-05-10T12:53:57.141Z,62.41
2023-05-10T12:55:02.128Z,62.81
2023-05-10T12:55:57.103Z,63.21
2023-05-10T12:56:57.099Z,63.31
2023-05-10T12:57:57.088Z,62.81
2023-05-10T12:58:57.131Z,63.21
2023-05-10T12:59:57.055Z,63.82
2023-05-10T13:00:57.049Z,62.91
2023-05-10T13:01:57.039Z,63.11
2023-05-10T13:02:57.025Z,62.71
2023-05-10T13:03:57.003Z,62.91
2023-05-10T13:04:57.009Z,62.41
2023-05-10T13:06:02.045Z,62.51
2023-05-10T13:06:56.976Z,62.30
2023-05-10T13:07:56.974Z,62.81
2023-05-10T13:08:56.962Z,62.41
2023-05-10T13:09:56.947Z,62.61
2023-05-10T13:10:56.922Z,63.01
2023-05-10T13:11:56.926Z,62.61
2023-05-10T13:12:56.903Z,62.30
2023-05-10T13:13:56.890Z,63.11
2023-05-10T13:14:56.912Z,63.82
2023-05-10T13:15:56.891Z,63.62
2023-05-10T13:17:01.931Z,62.71
2023-05-10T13:17:56.903Z,61.30
2023-05-10T13:18:56.990Z,61.80
2023-05-10T13:19:56.821Z,61.60
2023-05-10T13:20:56.844Z,61.40
2023-05-10T13:21:56.806Z,60.27
2023-05-10T13:22:56.793Z,60.36
2023-05-10T13:23:56.777Z,58.15
2023-05-10T13:24:56.768Z,59.39
2023-05-10T13:25:56.761Z,59.69
2023-05-10T13:26:56.746Z,59.28
2023-05-10T13:28:01.751Z,60.27
2023-05-10T13:28:56.750Z,59.99
2023-05-10T13:29:56.718Z,59.36
2023-05-10T13:30:56.747Z,58.48
2023-05-10T13:31:56.811Z,58.58
2023-05-10T13:32:56.726Z,58.88
2023-05-10T13:33:56.677Z,57.98
2023-05-10T13:34:56.669Z,58.48
2023-05-10T13:35:56.637Z,58.07
2023-05-10T13:36:56.651Z,58.07
2023-05-10T13:37:56.617Z,58.95
2023-05-10T13:39:01.650Z,58.45
2023-05-10T13:39:56.608Z,59.16
2023-05-10T13:40:56.595Z,58.95
2023-05-10T13:41:56.573Z,59.66
2023-05-10T13:42:56.574Z,57.24
2023-05-10T13:43:56.566Z,58.45
2023-05-10T13:44:56.560Z,57.35
2023-05-10T13:45:56.586Z,57.95
2023-05-10T13:46:56.540Z,58.45
2023-05-10T13:47:56.533Z,57.75
2023-05-10T13:48:56.514Z,58.35
2023-05-10T13:50:01.540Z,57.65
2023-05-10T13:50:56.482Z,56.34
2023-05-10T13:51:56.462Z,56.24
2023-05-10T13:52:56.455Z,55.83
2023-05-10T13:53:56.455Z,57.15
2023-05-10T13:54:56.432Z,57.65
2023-05-10T13:55:56.419Z,57.28
2023-05-10T13:56:56.413Z,56.44
2023-05-10T13:57:56.414Z,55.83
2023-05-10T13:58:56.397Z,56.07
2023-05-10T13:59:57.586Z,56.24
2023-05-10T14:01:01.388Z,56.14
2023-05-10T14:01:56.429Z,56.04
2023-05-10T14:02:56.475Z,54.53
2023-05-10T14:03:56.415Z,55.03
2023-05-10T14:04:56.318Z,55.43
2023-05-10T14:05:56.304Z,54.73
2023-05-10T14:06:56.294Z,55.23
2023-05-10T14:07:56.304Z,54.13
2023-05-10T14:08:56.288Z,54.25
2023-05-10T14:09:56.259Z,55.26
2023-05-10T14:10:56.249Z,56.37
2023-05-10T14:12:01.274Z,55.83
2023-05-10T14:12:56.226Z,54.55
2023-05-10T14:13:56.213Z,54.35
2023-05-10T14:14:56.219Z,54.35
2023-05-10T14:15:56.216Z,53.14
2023-05-10T14:16:56.191Z,54.05
2023-05-10T14:17:56.193Z,54.55
2023-05-10T14:18:56.197Z,54.55
2023-05-10T14:19:56.145Z,54.68
2023-05-10T14:20:56.153Z,54.75
2023-05-10T14:21:56.132Z,54.28
2023-05-10T14:23:01.140Z,55.26
2023-05-10T14:23:56.100Z,55.19
2023-05-10T14:24:56.090Z,55.46
2023-05-10T14:25:56.087Z,52.87
2023-05-10T14:26:56.081Z,53.34
2023-05-10T14:27:56.058Z,52.57
2023-05-10T14:28:56.093Z,53.14
2023-05-10T14:29:56.058Z,54.79
2023-05-10T14:30:56.037Z,53.58
2023-05-10T14:31:56.063Z,52.67
2023-05-10T14:32:56.021Z,53.47
2023-05-10T14:34:01.026Z,51.97
2023-05-10T14:34:55.988Z,51.46
2023-05-10T14:35:55.981Z,52.37
2023-05-10T14:36:55.953Z,53.05
2023-05-10T14:37:55.959Z,53.05
2023-05-10T14:38:55.934Z,51.84
2023-05-10T14:39:55.938Z,51.73
2023-05-10T14:40:55.909Z,51.73
2023-05-10T14:41:55.893Z,51.01
2023-05-10T14:42:55.890Z,51.11
2023-05-10T14:43:55.871Z,50.43
2023-05-10T14:45:00.892Z,50.20
2023-05-10T14:45:55.889Z,49.80
2023-05-10T14:46:55.847Z,50.00
2023-05-10T14:47:55.859Z,50.91
2023-05-10T14:48:55.812Z,50.71
2023-05-10T14:49:55.829Z,51.01
2023-05-10T14:50:55.792Z,51.41
2023-05-10T14:51:55.780Z,51.71
2023-05-10T14:52:55.770Z,51.21
2023-05-10T14:53:55.761Z,51.59
2023-05-10T14:54:55.748Z,52.59
2023-05-10T14:56:00.754Z,51.99
2023-05-10T14:56:55.717Z,51.29
2023-05-10T14:57:55.711Z,51.18
2023-05-10T14:58:55.711Z,51.29
2023-05-10T14:59:55.696Z,52.82
2023-05-10T15:00:55.739Z,52.62
2023-05-10T15:01:55.666Z,51.91
2023-05-10T15:02:55.741Z,52.92
2023-05-10T15:03:55.704Z,51.41
2023-05-10T15:04:55.638Z,53.02
2023-05-10T15:05:55.652Z,52.72
2023-05-10T15:07:00.627Z,53.12
2023-05-10T15:07:55.600Z,52.62
2023-05-10T15:08:55.595Z,52.54
2023-05-10T15:09:55.573Z,53.14
2023-05-10T15:10:55.560Z,52.44
2023-05-10T15:11:55.545Z,52.54
2023-05-10T15:12:55.540Z,52.62
2023-05-10T15:13:55.531Z,54.13
2023-05-10T15:14:55.516Z,52.51
2023-05-10T15:15:55.520Z,52.31
2023-05-10T15:16:55.507Z,51.61
2023-05-10T15:18:00.557Z,51.18
2023-05-10T15:18:55.551Z,52.59
2023-05-10T15:19:55.454Z,53.60
2023-05-10T15:20:55.447Z,52.29
2023-05-10T15:21:55.461Z,51.29
2023-05-10T15:22:55.440Z,51.89
2023-05-10T15:23:55.410Z,50.78
2023-05-10T15:24:55.400Z,49.98
2023-05-10T15:25:55.390Z,50.20
2023-05-10T15:26:55.378Z,51.59
2023-05-10T15:27:55.371Z,50.10
2023-05-10T15:29:00.428Z,50.20
2023-05-10T15:29:55.339Z,49.90
2023-05-10T15:30:55.351Z,50.08
2023-05-10T15:31:55.407Z,49.90
2023-05-10T15:32:55.391Z,50.71
2023-05-10T15:33:55.297Z,50.10
2023-05-10T15:34:55.305Z,50.31
2023-05-10T15:35:55.293Z,51.31
2023-05-10T15:36:55.278Z,50.40
2023-05-10T15:37:55.279Z,50.48
2023-05-10T15:38:55.246Z,49.57
2023-05-10T15:40:00.260Z,49.88
2023-05-10T15:40:55.225Z,50.18
2023-05-10T15:41:55.215Z,50.58
2023-05-10T15:42:55.198Z,50.18
2023-05-10T15:43:55.210Z,48.97
2023-05-10T15:44:55.173Z,49.45
2023-05-10T15:45:55.172Z,50.08
2023-05-10T15:46:55.248Z,50.66
2023-05-10T15:47:55.199Z,50.46
2023-05-10T15:48:55.142Z,50.58
2023-05-10T15:49:55.114Z,49.98
2023-05-10T15:51:00.160Z,49.98
2023-05-10T15:51:55.107Z,50.15
2023-05-10T15:52:55.096Z,51.09
2023-05-10T15:54:06.469Z,50.78
2023-05-10T15:54:56.074Z,50.38
2023-05-10T15:55:55.065Z,50.56
2023-05-10T15:56:55.051Z,50.08
2023-05-10T15:57:55.034Z,49.37
2023-05-10T15:58:55.024Z,49.65
2023-05-10T15:59:55.007Z,48.85
2023-05-10T16:00:55.033Z,49.85
2023-05-10T16:02:00.045Z,49.35
2023-05-10T16:02:55.124Z,50.08
2023-05-10T16:03:54.977Z,49.15
2023-05-10T16:04:54.977Z,49.05
2023-05-10T16:05:54.950Z,50.08
2023-05-10T16:06:54.942Z,49.05
2023-05-10T16:07:54.918Z,49.18
2023-05-10T16:08:54.909Z,50.08
2023-05-10T16:09:54.927Z,50.58
2023-05-10T16:10:54.890Z,50.28
2023-05-10T16:11:54.913Z,49.05
2023-05-10T16:12:59.881Z,49.18
2023-05-10T16:13:54.857Z,49.27
2023-05-10T16:14:54.856Z,50.08
2023-05-10T16:15:54.881Z,49.68
2023-05-10T16:16:54.914Z,50.08
2023-05-10T16:17:54.972Z,50.18
2023-05-10T16:18:54.879Z,50.08
2023-05-10T16:19:54.897Z,50.68
2023-05-10T16:20:54.770Z,49.18
2023-05-10T16:21:54.768Z,49.27
2023-05-10T16:22:54.752Z,49.40
2023-05-10T16:23:59.779Z,50.18
2023-05-10T16:24:54.758Z,49.77
2023-05-10T16:25:54.736Z,50.08
2023-05-10T16:26:54.700Z,49.98
2023-05-10T16:27:54.691Z,49.30
2023-05-10T16:28:54.699Z,49.19
2023-05-10T16:29:54.682Z,49.48
2023-05-10T16:30:54.685Z,48.97
2023-05-10T16:31:54.672Z,50.60
2023-05-10T16:32:54.640Z,49.19
2023-05-10T16:33:54.659Z,50.10
2023-05-10T16:34:59.631Z,49.90
2023-05-10T16:35:54.615Z,49.80
2023-05-10T16:36:54.609Z,50.40
2023-05-10T16:37:54.594Z,51.11
2023-05-10T16:38:54.590Z,50.40
2023-05-10T16:39:54.581Z,50.91
2023-05-10T16:40:54.542Z,50.20
2023-05-10T16:41:54.550Z,50.00
2023-05-10T16:42:54.527Z,50.00
2023-05-10T16:43:54.507Z,51.11
2023-05-10T16:44:54.500Z,51.11
2023-05-10T16:45:59.537Z,51.91
2023-05-10T16:46:54.469Z,50.91
2023-05-10T16:47:54.514Z,51.91
2023-05-10T16:48:54.456Z,51.71
2023-05-10T16:49:54.442Z,51.51
2023-05-10T16:50:54.437Z,51.11
2023-05-10T16:51:54.444Z,51.81
2023-05-10T16:52:54.408Z,51.21
2023-05-10T16:53:54.402Z,50.81
2023-05-10T16:54:54.378Z,51.11
2023-05-10T16:55:54.369Z,51.11
2023-05-10T16:56:59.408Z,51.61
2023-05-10T16:57:54.356Z,51.71
2023-05-10T16:58:54.348Z,51.61
2023-05-10T16:59:54.331Z,51.41
2023-05-10T17:00:54.310Z,51.71
2023-05-10T17:01:54.374Z,52.01
2023-05-10T17:02:54.347Z,51.41
2023-05-10T17:03:54.344Z,51.61
2023-05-10T17:04:54.273Z,52.14
2023-05-10T17:05:54.259Z,51.23
2023-05-10T17:06:54.266Z,51.71
2023-05-10T17:07:59.258Z,52.22
2023-05-10T17:08:54.462Z,52.31
2023-05-10T17:09:54.237Z,53.12
2023-05-10T17:10:54.194Z,52.42
2023-05-10T17:11:54.211Z,52.34
2023-05-10T17:12:54.191Z,51.91
2023-05-10T17:13:54.170Z,52.62
2023-05-10T17:14:54.156Z,51.93
2023-05-10T17:15:54.258Z,51.43
2023-05-10T17:16:54.228Z,53.05
2023-05-10T17:17:54.198Z,51.43
2023-05-10T17:18:59.206Z,52.24
2023-05-10T17:19:54.103Z,53.25
2023-05-10T17:20:54.092Z,52.64
2023-05-10T17:21:54.078Z,52.47
2023-05-10T17:22:54.064Z,53.07
2023-05-10T17:23:54.056Z,53.05
2023-05-10T17:24:54.045Z,53.65
2023-05-10T17:25:54.050Z,52.94
2023-05-10T17:26:54.015Z,52.77
2023-05-10T17:27:54.005Z,52.44
2023-05-10T17:28:54.015Z,53.38
2023-05-10T17:29:59.110Z,53.05
2023-05-10T17:30:53.977Z,52.67
2023-05-10T17:31:53.987Z,53.07
2023-05-10T17:32:53.970Z,53.07
2023-05-10T17:33:53.943Z,53.78
2023-05-10T17:34:53.934Z,53.98
2023-05-10T17:35:53.932Z,54.28
2023-05-10T17:36:53.897Z,54.58
2023-05-10T17:37:53.890Z,54.18
2023-05-10T17:38:53.876Z,55.08
2023-05-10T17:39:53.879Z,55.19
2023-05-10T17:40:58.882Z,55.19
2023-05-10T17:41:53.858Z,55.49
2023-05-10T17:42:53.834Z,55.49
2023-05-10T17:43:53.824Z,56.09
2023-05-10T17:44:53.852Z,56.49
2023-05-10T17:45:53.838Z,56.40
2023-05-10T17:46:53.785Z,56.82
2023-05-10T17:47:53.836Z,57.12
2023-05-10T17:48:53.791Z,56.70
2023-05-10T17:49:53.760Z,56.42
2023-05-10T17:50:53.748Z,56.80
2023-05-10T17:51:58.764Z,56.62
2023-05-10T17:52:53.721Z,56.62
2023-05-10T17:53:53.736Z,57.12